Terminal Aerodrome Forecast
Issued by NWS

Home | Current Version | Previous Version | Text Only | Print | Product List | Glossary On
Versions: 1 2 3 4 5 6 7 8 9 10 11 12
638
FTUS45 KTFX 211720
TAFCTB
TAF
KCTB 211720Z 2118/2218 33008KT P6SM FEW090 SCT200
     FM220500 32006KT P6SM SCT035 BKN070
     FM220800 32005KT P6SM SCT015 BKN035=

USA.gov is the U.S. government's official web portal to all federal, state and local government web resources and services.